createdAt,value
2018-04-10T00:00:56.356Z,941.9
2018-04-10T00:01:56.346Z,941.9
2018-04-10T00:02:56.337Z,941.89
2018-04-10T00:03:56.327Z,941.86
2018-04-10T00:04:56.315Z,941.85
2018-04-10T00:05:56.304Z,941.84
2018-04-10T00:06:56.295Z,941.86
2018-04-10T00:07:56.287Z,941.89
2018-04-10T00:08:56.274Z,941.86
2018-04-10T00:09:56.264Z,941.82
2018-04-10T00:10:56.252Z,941.87
2018-04-10T00:11:56.241Z,941.84
2018-04-10T00:12:56.233Z,941.85
2018-04-10T00:13:56.224Z,941.85
2018-04-10T00:14:56.211Z,941.87
2018-04-10T00:15:56.202Z,941.81
2018-04-10T00:16:56.191Z,941.86
2018-04-10T00:17:56.181Z,941.85
2018-04-10T00:18:56.170Z,941.89
2018-04-10T00:19:56.159Z,941.89
2018-04-10T00:20:56.149Z,941.9
2018-04-10T00:21:56.138Z,941.82
2018-04-10T00:22:56.127Z,941.88
2018-04-10T00:23:56.120Z,941.9
2018-04-10T00:24:56.106Z,941.83
2018-04-10T00:25:56.096Z,941.91
2018-04-10T00:26:56.084Z,941.88
2018-04-10T00:27:56.074Z,941.79
2018-04-10T00:28:56.064Z,941.81
2018-04-10T00:29:56.053Z,941.84
2018-04-10T00:30:56.041Z,941.75
2018-04-10T00:31:56.031Z,941.71
2018-04-10T00:32:56.020Z,941.78
2018-04-10T00:33:56.009Z,941.81
2018-04-10T00:34:55.998Z,941.76
2018-04-10T00:35:55.988Z,941.83
2018-04-10T00:36:55.978Z,941.83
2018-04-10T00:37:55.965Z,941.87
2018-04-10T00:38:56.205Z,941.86
2018-04-10T00:39:55.944Z,941.89
2018-04-10T00:40:55.933Z,941.89
2018-04-10T00:41:55.921Z,941.89
2018-04-10T00:42:55.912Z,941.82
2018-04-10T00:43:55.901Z,941.8
2018-04-10T00:44:55.889Z,941.83
2018-04-10T00:45:55.882Z,941.82
2018-04-10T00:46:55.868Z,941.82
2018-04-10T00:47:55.891Z,941.78
2018-04-10T00:48:55.845Z,941.74
2018-04-10T00:49:55.833Z,941.75
2018-04-10T00:50:55.824Z,941.72
2018-04-10T00:51:55.813Z,941.72
2018-04-10T00:52:55.810Z,941.68
2018-04-10T00:53:55.790Z,941.71
2018-04-10T00:54:55.779Z,941.69
2018-04-10T00:55:55.770Z,941.69
2018-04-10T00:56:55.757Z,941.72
2018-04-10T00:57:55.747Z,941.71
2018-04-10T00:58:55.736Z,941.71
2018-04-10T00:59:55.724Z,941.76
2018-04-10T01:00:55.714Z,941.74
2018-04-10T01:01:55.702Z,941.75
2018-04-10T01:02:55.692Z,941.76
2018-04-10T01:03:55.680Z,941.76
2018-04-10T01:04:55.669Z,941.77
2018-04-10T01:05:55.659Z,941.67
2018-04-10T01:06:55.647Z,941.68
2018-04-10T01:07:55.639Z,941.69
2018-04-10T01:08:55.624Z,941.62
2018-04-10T01:09:55.614Z,941.58
2018-04-10T01:10:55.601Z,941.61
2018-04-10T01:11:55.591Z,941.59
2018-04-10T01:12:55.580Z,941.55
2018-04-10T01:13:55.569Z,941.58
2018-04-10T01:14:55.560Z,941.6
2018-04-10T01:15:55.546Z,941.6
2018-04-10T01:16:55.536Z,941.57
2018-04-10T01:17:55.525Z,941.58
2018-04-10T01:18:55.514Z,941.6
2018-04-10T01:19:55.502Z,941.62
2018-04-10T01:20:55.491Z,941.65
2018-04-10T01:21:55.479Z,941.67
2018-04-10T01:22:55.469Z,941.6
2018-04-10T01:23:55.458Z,941.63
2018-04-10T01:24:55.446Z,941.63
2018-04-10T01:25:55.435Z,941.63
2018-04-10T01:26:55.422Z,941.64
2018-04-10T01:27:55.413Z,941.75
2018-04-10T01:28:55.400Z,941.75
2018-04-10T01:29:55.389Z,941.76
2018-04-10T01:30:55.378Z,941.79
2018-04-10T01:31:55.367Z,941.76
2018-04-10T01:32:55.354Z,941.79
2018-04-10T01:33:55.343Z,941.77
2018-04-10T01:34:55.333Z,941.77
2018-04-10T01:35:55.320Z,941.77
2018-04-10T01:36:55.316Z,941.77
2018-04-10T01:37:55.298Z,941.74
2018-04-10T01:38:55.287Z,941.76
2018-04-10T01:39:55.274Z,941.76
2018-04-10T01:40:55.263Z,941.74
2018-04-10T01:41:55.253Z,941.73
2018-04-10T01:42:55.241Z,941.72
2018-04-10T01:43:55.229Z,941.68
2018-04-10T01:44:55.220Z,941.72
2018-04-10T01:45:55.205Z,941.74
2018-04-10T01:46:55.197Z,941.77
2018-04-10T01:47:55.184Z,941.75
2018-04-10T01:48:55.172Z,941.75
2018-04-10T01:49:55.160Z,941.77
2018-04-10T01:50:55.149Z,941.76
2018-04-10T01:51:55.140Z,941.79
2018-04-10T01:52:55.125Z,941.78
2018-04-10T01:53:55.115Z,941.79
2018-04-10T01:54:55.102Z,941.81
2018-04-10T01:55:55.090Z,941.87
2018-04-10T01:56:55.079Z,941.92
2018-04-10T01:57:55.066Z,942.01
2018-04-10T01:58:55.055Z,942.01
2018-04-10T01:59:55.044Z,941.96
2018-04-10T02:00:55.033Z,941.86
2018-04-10T02:01:55.021Z,941.82
2018-04-10T02:02:55.009Z,941.84
2018-04-10T02:03:54.997Z,941.88
2018-04-10T02:04:54.986Z,941.9
2018-04-10T02:05:54.972Z,941.87
2018-04-10T02:06:54.963Z,941.93
2018-04-10T02:07:54.949Z,941.93
2018-04-10T02:08:54.937Z,941.96
2018-04-10T02:09:54.927Z,941.97
2018-04-10T02:10:54.915Z,941.97
2018-04-10T02:11:54.903Z,941.99
2018-04-10T02:12:54.892Z,942.01
2018-04-10T02:13:54.879Z,942
2018-04-10T02:14:54.868Z,941.96
2018-04-10T02:15:54.857Z,941.99
2018-04-10T02:16:54.844Z,941.95
2018-04-10T02:17:54.833Z,941.9
2018-04-10T02:18:54.822Z,941.92
2018-04-10T02:19:54.809Z,941.86
2018-04-10T02:20:54.798Z,941.83
2018-04-10T02:21:54.785Z,941.86
2018-04-10T02:22:54.775Z,941.87
2018-04-10T02:23:54.767Z,941.85
2018-04-10T02:24:54.757Z,941.84
2018-04-10T02:25:54.740Z,941.85
2018-04-10T02:26:54.728Z,941.83
2018-04-10T02:27:54.716Z,941.83
2018-04-10T02:28:54.705Z,941.86
2018-04-10T02:29:54.692Z,941.82
2018-04-10T02:30:54.680Z,941.84
2018-04-10T02:31:54.669Z,941.84
2018-04-10T02:32:54.656Z,941.8
2018-04-10T02:33:54.645Z,941.8
2018-04-10T02:34:54.631Z,941.84
2018-04-10T02:35:54.622Z,941.82
2018-04-10T02:36:54.609Z,941.84
2018-04-10T02:37:54.599Z,941.79
2018-04-10T02:38:54.588Z,941.82
2018-04-10T02:39:54.575Z,941.82
2018-04-10T02:40:54.563Z,941.84
2018-04-10T02:41:54.553Z,941.86
2018-04-10T02:42:54.538Z,941.87
2018-04-10T02:43:54.538Z,941.84
2018-04-10T02:44:54.515Z,941.82
2018-04-10T02:45:54.503Z,941.81
2018-04-10T02:46:54.491Z,941.83
2018-04-10T02:47:54.479Z,941.76
2018-04-10T02:48:54.468Z,941.75
2018-04-10T02:49:54.457Z,941.74
2018-04-10T02:50:54.446Z,941.72
2018-04-10T02:51:54.433Z,941.72
2018-04-10T02:52:54.421Z,941.77
2018-04-10T02:53:54.412Z,941.77
2018-04-10T02:54:54.397Z,941.79
2018-04-10T02:55:54.386Z,941.72
2018-04-10T02:56:54.373Z,941.74
2018-04-10T02:57:54.363Z,941.73
2018-04-10T02:58:54.351Z,941.72
2018-04-10T02:59:54.337Z,941.75
2018-04-10T03:00:54.327Z,941.72
2018-04-10T03:01:54.314Z,941.73
2018-04-10T03:02:54.301Z,941.76
2018-04-10T03:03:54.290Z,941.78
2018-04-10T03:04:54.282Z,941.78
2018-04-10T03:05:54.265Z,941.75
2018-04-10T03:06:54.254Z,941.77
2018-04-10T03:07:54.242Z,941.78
2018-04-10T03:08:54.229Z,941.73
2018-04-10T03:09:54.217Z,941.72
2018-04-10T03:10:54.205Z,941.69
2018-04-10T03:11:54.194Z,941.7
2018-04-10T03:12:54.181Z,941.7
2018-04-10T03:13:54.170Z,941.73
2018-04-10T03:14:54.157Z,941.7
2018-04-10T03:15:54.147Z,941.69
2018-04-10T03:16:54.134Z,941.7
2018-04-10T03:17:54.122Z,941.71
2018-04-10T03:18:54.109Z,941.7
2018-04-10T03:19:54.098Z,941.67
2018-04-10T03:20:54.086Z,941.62
2018-04-10T03:21:54.073Z,941.6
2018-04-10T03:22:54.062Z,941.6
2018-04-10T03:23:54.049Z,941.62
2018-04-10T03:24:54.038Z,941.59
2018-04-10T03:25:54.025Z,941.59
2018-04-10T03:26:54.013Z,941.62
2018-04-10T03:27:54.001Z,941.56
2018-04-10T03:28:54.033Z,941.6
2018-04-10T03:29:53.981Z,941.53
2018-04-10T03:30:53.969Z,941.54
2018-04-10T03:31:53.954Z,941.58
2018-04-10T03:32:53.940Z,941.59
2018-04-10T03:33:53.928Z,941.62
2018-04-10T03:34:53.919Z,941.57
2018-04-10T03:35:53.906Z,941.59
2018-04-10T03:36:53.892Z,941.63
2018-04-10T03:37:53.880Z,941.61
2018-04-10T03:38:53.869Z,941.6
2018-04-10T03:39:53.857Z,941.63
2018-04-10T03:40:53.844Z,941.65
2018-04-10T03:41:53.833Z,941.65
2018-04-10T03:42:53.819Z,941.64
2018-04-10T03:43:53.817Z,941.66
2018-04-10T03:44:53.796Z,941.67
2018-04-10T03:45:53.784Z,941.66
2018-04-10T03:46:53.773Z,941.67
2018-04-10T03:47:53.764Z,941.63
2018-04-10T03:48:53.749Z,941.67
2018-04-10T03:49:53.737Z,941.61
2018-04-10T03:50:53.729Z,941.61
2018-04-10T03:51:53.712Z,941.63
2018-04-10T03:52:53.700Z,941.59
2018-04-10T03:53:53.688Z,941.61
2018-04-10T03:54:53.676Z,941.62
2018-04-10T03:55:53.669Z,941.61
2018-04-10T03:56:53.657Z,941.61
2018-04-10T03:57:53.640Z,941.68
2018-04-10T03:58:53.627Z,941.69
2018-04-10T03:59:53.614Z,941.7
2018-04-10T04:00:53.603Z,941.69
2018-04-10T04:01:53.592Z,941.7
2018-04-10T04:02:53.579Z,941.64
2018-04-10T04:03:53.568Z,941.65
2018-04-10T04:04:53.555Z,941.62
2018-04-10T04:05:53.544Z,941.63
2018-04-10T04:06:53.531Z,941.63
2018-04-10T04:07:53.519Z,941.6
2018-04-10T04:08:53.544Z,941.55
2018-04-10T04:09:53.495Z,941.55
2018-04-10T04:10:53.483Z,941.54
2018-04-10T04:11:53.471Z,941.54
2018-04-10T04:12:53.461Z,941.56
2018-04-10T04:13:53.446Z,941.56
2018-04-10T04:14:53.436Z,941.54
2018-04-10T04:15:53.425Z,941.52
2018-04-10T04:16:53.411Z,941.54
2018-04-10T04:17:53.399Z,941.58
2018-04-10T04:18:53.387Z,941.56
2018-04-10T04:19:53.375Z,941.56
2018-04-10T04:20:53.365Z,941.59
2018-04-10T04:21:53.351Z,941.6
2018-04-10T04:22:53.339Z,941.55
2018-04-10T04:23:53.325Z,941.52
2018-04-10T04:24:53.315Z,941.54
2018-04-10T04:25:53.303Z,941.56
2018-04-10T04:26:53.292Z,941.52
2018-04-10T04:27:53.278Z,941.52
2018-04-10T04:28:53.267Z,941.54
2018-04-10T04:29:53.255Z,941.53
2018-04-10T04:30:53.243Z,941.52
2018-04-10T04:31:53.232Z,941.54
2018-04-10T04:32:53.219Z,941.51
2018-04-10T04:33:53.208Z,941.51
2018-04-10T04:34:53.194Z,941.55
2018-04-10T04:35:53.181Z,941.51
2018-04-10T04:36:53.170Z,941.5
2018-04-10T04:37:53.158Z,941.48
2018-04-10T04:38:53.144Z,941.51
2018-04-10T04:39:53.133Z,941.54
2018-04-10T04:40:53.121Z,941.55
2018-04-10T04:41:53.109Z,941.54
2018-04-10T04:42:53.096Z,941.53
2018-04-10T04:43:53.084Z,941.53
2018-04-10T04:44:53.073Z,941.55
2018-04-10T04:45:53.059Z,941.56
2018-04-10T04:46:53.047Z,941.53
2018-04-10T04:47:53.035Z,941.49
2018-04-10T04:48:53.023Z,941.48
2018-04-10T04:49:53.013Z,941.47
2018-04-10T04:50:52.998Z,941.48
2018-04-10T04:51:52.988Z,941.53
2018-04-10T04:52:52.981Z,941.52
2018-04-10T04:53:52.962Z,941.5
2018-04-10T04:54:52.950Z,941.57
2018-04-10T04:55:52.939Z,941.59
2018-04-10T04:56:52.925Z,941.59
2018-04-10T04:57:52.912Z,941.63
2018-04-10T04:58:52.901Z,941.62
2018-04-10T04:59:52.890Z,941.59
2018-04-10T05:00:52.877Z,941.62
2018-04-10T05:01:52.866Z,941.58
2018-04-10T05:02:52.853Z,941.66
2018-04-10T05:03:52.840Z,941.64
2018-04-10T05:04:52.829Z,941.64
2018-04-10T05:05:52.818Z,941.65
2018-04-10T05:06:52.806Z,941.64
2018-04-10T05:07:52.793Z,941.61
2018-04-10T05:08:52.781Z,941.62
2018-04-10T05:09:52.770Z,941.61
2018-04-10T05:10:52.758Z,941.6
2018-04-10T05:11:52.745Z,941.6
2018-04-10T05:12:52.734Z,941.62
2018-04-10T05:13:52.724Z,941.64
2018-04-10T05:14:52.711Z,941.65
2018-04-10T05:15:52.698Z,941.62
2018-04-10T05:16:52.722Z,941.65
2018-04-10T05:17:52.675Z,941.66
2018-04-10T05:18:52.662Z,941.62
2018-04-10T05:19:52.653Z,941.66
2018-04-10T05:20:52.639Z,941.62
2018-04-10T05:21:52.628Z,941.67
2018-04-10T05:22:52.615Z,941.67
2018-04-10T05:23:52.604Z,941.68
2018-04-10T05:24:52.593Z,941.64
2018-04-10T05:25:52.581Z,941.66
2018-04-10T05:26:52.570Z,941.67
2018-04-10T05:27:52.557Z,941.67
2018-04-10T05:28:52.548Z,941.72
2018-04-10T05:29:52.545Z,941.68
2018-04-10T05:30:52.522Z,941.62
2018-04-10T05:31:52.510Z,941.66
2018-04-10T05:32:52.500Z,941.63
2018-04-10T05:33:52.488Z,941.63
2018-04-10T05:34:52.479Z,941.6
2018-04-10T05:35:52.465Z,941.6
2018-04-10T05:36:52.453Z,941.62
2018-04-10T05:37:52.441Z,941.58
2018-04-10T05:38:52.430Z,941.59
2018-04-10T05:39:52.457Z,941.57
2018-04-10T05:40:52.407Z,941.58
2018-04-10T05:41:52.396Z,941.63
2018-04-10T05:42:52.387Z,941.58
2018-04-10T05:43:52.375Z,941.59
2018-04-10T05:44:52.363Z,941.59
2018-04-10T05:45:52.350Z,941.59
2018-04-10T05:46:52.342Z,941.6
2018-04-10T05:47:52.329Z,941.58
2018-04-10T05:48:52.317Z,941.56
2018-04-10T05:49:52.306Z,941.55
2018-04-10T05:50:52.295Z,941.6
2018-04-10T05:51:52.283Z,941.59
2018-04-10T05:52:52.272Z,941.59
2018-04-10T05:53:52.260Z,941.6
2018-04-10T05:54:52.250Z,941.62
2018-04-10T05:55:52.238Z,941.6
2018-04-10T05:56:52.228Z,941.58
2018-04-10T05:57:52.218Z,941.57
2018-04-10T05:58:52.209Z,941.58
2018-04-10T05:59:52.196Z,941.6
2018-04-10T06:00:52.184Z,941.61
2018-04-10T06:01:52.176Z,941.64
2018-04-10T06:02:52.161Z,941.67
2018-04-10T06:03:52.151Z,941.66
2018-04-10T06:04:52.139Z,941.58
2018-04-10T06:05:52.130Z,941.56
2018-04-10T06:06:52.118Z,941.57
2018-04-10T06:07:52.107Z,941.57
2018-04-10T06:08:52.096Z,941.59
2018-04-10T06:09:52.106Z,941.57
2018-04-10T06:10:52.076Z,941.59
2018-04-10T06:11:52.066Z,941.6
2018-04-10T06:12:52.055Z,941.58
2018-04-10T06:13:52.044Z,941.56
2018-04-10T06:14:52.033Z,941.6
2018-04-10T06:15:52.026Z,941.54
2018-04-10T06:16:52.015Z,941.56
2018-04-10T06:17:52.001Z,941.54
2018-04-10T06:18:51.991Z,941.56
2018-04-10T06:19:51.982Z,941.57
2018-04-10T06:20:51.972Z,941.55
2018-04-10T06:21:51.961Z,941.59
2018-04-10T06:22:51.950Z,941.58
2018-04-10T06:23:51.940Z,941.59
2018-04-10T06:24:51.931Z,941.59
2018-04-10T06:25:51.919Z,941.63
2018-04-10T06:26:51.909Z,941.59
2018-04-10T06:27:51.898Z,941.61
2018-04-10T06:28:51.889Z,941.56
2018-04-10T06:29:51.880Z,941.56
2018-04-10T06:30:51.869Z,941.61
2018-04-10T06:31:51.859Z,941.58
2018-04-10T06:32:51.849Z,941.6
2018-04-10T06:33:51.843Z,941.66
2018-04-10T06:34:51.830Z,941.6
2018-04-10T06:35:51.819Z,941.62
2018-04-10T06:36:51.810Z,941.57
2018-04-10T06:37:51.800Z,941.61
2018-04-10T06:38:51.793Z,941.63
2018-04-10T06:39:51.782Z,941.61
2018-04-10T06:40:51.773Z,941.63
2018-04-10T06:41:51.764Z,941.58
2018-04-10T06:42:51.753Z,941.54
2018-04-10T06:43:51.747Z,941.58
2018-04-10T06:44:51.737Z,941.6
2018-04-10T06:45:51.728Z,941.59
2018-04-10T06:46:51.720Z,941.59
2018-04-10T06:47:51.712Z,941.62
2018-04-10T06:48:51.703Z,941.63
2018-04-10T06:49:51.696Z,941.66
2018-04-10T06:50:51.689Z,941.66
2018-04-10T06:51:51.682Z,941.67
2018-04-10T06:52:51.676Z,941.68
2018-04-10T06:53:51.668Z,941.66
2018-04-10T06:54:51.663Z,941.67
2018-04-10T06:55:51.658Z,941.68
2018-04-10T06:56:51.653Z,941.66
2018-04-10T06:57:51.647Z,941.68
2018-04-10T06:58:51.643Z,941.73
2018-04-10T06:59:51.638Z,941.67
2018-04-10T07:00:51.634Z,941.72
2018-04-10T07:01:51.637Z,941.76
2018-04-10T07:02:51.627Z,941.78
2018-04-10T07:03:51.625Z,941.79
2018-04-10T07:04:51.621Z,941.79
2018-04-10T07:05:51.618Z,941.84
2018-04-10T07:06:51.616Z,941.88
2018-04-10T07:07:51.614Z,941.93
2018-04-10T07:08:51.611Z,941.97
2018-04-10T07:09:51.610Z,942.06
2018-04-10T07:10:51.609Z,942.04
2018-04-10T07:11:51.608Z,942.11
2018-04-10T07:12:51.607Z,942.27
2018-04-10T07:13:51.609Z,942.2
2018-04-10T07:14:51.604Z,941.93
2018-04-10T07:15:51.602Z,941.71
2018-04-10T07:16:51.601Z,941.66
2018-04-10T07:17:51.599Z,941.68
2018-04-10T07:18:51.599Z,941.67
2018-04-10T07:19:51.597Z,941.71
2018-04-10T07:20:51.662Z,941.64
2018-04-10T07:21:51.596Z,941.63
2018-04-10T07:22:51.595Z,941.67
2018-04-10T07:23:51.593Z,941.62
2018-04-10T07:24:51.592Z,941.63
2018-04-10T07:25:51.591Z,941.63
2018-04-10T07:26:51.593Z,941.64
2018-04-10T07:27:51.589Z,941.66
2018-04-10T07:28:51.589Z,941.65
2018-04-10T07:29:51.590Z,941.62
2018-04-10T07:30:51.587Z,941.64
2018-04-10T07:31:51.586Z,941.63
2018-04-10T07:32:51.585Z,941.6
2018-04-10T07:33:51.585Z,941.63
2018-04-10T07:34:51.583Z,941.63
2018-04-10T07:35:51.582Z,941.66
2018-04-10T07:36:51.581Z,941.64
2018-04-10T07:37:51.578Z,941.67
2018-04-10T07:38:51.578Z,941.64
2018-04-10T07:39:51.610Z,941.62
2018-04-10T07:40:51.574Z,941.6
2018-04-10T07:41:51.572Z,941.64
2018-04-10T07:42:51.570Z,941.64
2018-04-10T07:43:51.569Z,941.62
2018-04-10T07:44:51.566Z,941.65
2018-04-10T07:45:51.565Z,941.65
2018-04-10T07:46:51.564Z,941.65
2018-04-10T07:47:51.560Z,941.68
2018-04-10T07:48:51.557Z,941.7
2018-04-10T07:49:51.556Z,941.68
2018-04-10T07:50:51.553Z,941.72
2018-04-10T07:51:51.551Z,941.7
2018-04-10T07:52:51.549Z,941.73
2018-04-10T07:53:51.547Z,941.73
2018-04-10T07:54:51.546Z,941.75
2018-04-10T07:55:51.542Z,941.74
2018-04-10T07:56:51.540Z,941.73
2018-04-10T07:57:51.539Z,941.7
2018-04-10T07:58:51.536Z,941.76
2018-04-10T07:59:51.532Z,941.73
2018-04-10T08:00:51.562Z,941.73
2018-04-10T08:01:51.531Z,941.73
2018-04-10T08:02:51.534Z,941.75
2018-04-10T08:03:51.526Z,941.78
2018-04-10T08:04:51.525Z,941.74
2018-04-10T08:05:51.521Z,941.77
2018-04-10T08:06:51.523Z,941.8
2018-04-10T08:07:51.516Z,941.8
2018-04-10T08:08:51.516Z,941.8
2018-04-10T08:09:51.513Z,941.79
2018-04-10T08:10:51.511Z,941.78
2018-04-10T08:11:51.508Z,941.84
2018-04-10T08:12:51.507Z,941.89
2018-04-10T08:13:51.505Z,941.86
2018-04-10T08:14:51.552Z,941.89
2018-04-10T08:15:51.506Z,941.89
2018-04-10T08:16:51.499Z,941.92
2018-04-10T08:17:51.495Z,941.92
2018-04-10T08:18:51.495Z,941.89
2018-04-10T08:19:51.492Z,941.87
2018-04-10T08:20:51.490Z,941.85
2018-04-10T08:21:51.488Z,941.87
2018-04-10T08:22:51.487Z,941.84
2018-04-10T08:23:51.484Z,941.88
2018-04-10T08:24:51.482Z,941.89
2018-04-10T08:25:51.480Z,941.9
2018-04-10T08:26:51.482Z,941.86
2018-04-10T08:27:51.476Z,941.91
2018-04-10T08:28:51.474Z,941.89
2018-04-10T08:29:51.473Z,941.88
2018-04-10T08:30:51.470Z,941.89
2018-04-10T08:31:51.467Z,941.92
2018-04-10T08:32:51.464Z,941.85
2018-04-10T08:33:51.464Z,941.9
2018-04-10T08:34:51.462Z,941.91
2018-04-10T08:35:51.464Z,941.91
2018-04-10T08:36:51.459Z,941.9
2018-04-10T08:37:51.468Z,941.88
2018-04-10T08:38:51.455Z,941.88
2018-04-10T08:39:51.452Z,941.88
2018-04-10T08:40:51.451Z,941.94
2018-04-10T08:41:51.450Z,941.89
2018-04-10T08:42:51.449Z,941.88
2018-04-10T08:43:51.447Z,941.93
2018-04-10T08:44:51.444Z,941.95
2018-04-10T08:45:51.443Z,941.9
2018-04-10T08:46:51.440Z,941.94
2018-04-10T08:47:51.440Z,941.95
2018-04-10T08:48:51.435Z,941.96
2018-04-10T08:49:51.435Z,941.99
2018-04-10T08:50:51.433Z,941.93
2018-04-10T08:51:51.431Z,941.97
2018-04-10T08:52:51.429Z,941.98
2018-04-10T08:53:51.432Z,941.94
2018-04-10T08:54:51.426Z,941.94
2018-04-10T08:55:51.424Z,941.96
2018-04-10T08:56:51.427Z,941.92
2018-04-10T08:57:51.426Z,941.97
2018-04-10T08:58:51.419Z,941.97
2018-04-10T08:59:51.418Z,941.96
2018-04-10T09:00:51.416Z,941.97
2018-04-10T09:01:51.416Z,941.92
2018-04-10T09:02:51.414Z,941.97
2018-04-10T09:03:51.412Z,941.96
2018-04-10T09:04:51.410Z,941.94
2018-04-10T09:05:51.408Z,941.96
2018-04-10T09:06:51.407Z,941.95
2018-04-10T09:07:51.406Z,941.99
2018-04-10T09:08:51.405Z,942.05
2018-04-10T09:09:51.404Z,942.04
2018-04-10T09:10:51.402Z,942.06
2018-04-10T09:11:51.402Z,942.01
2018-04-10T09:12:51.400Z,942.03
2018-04-10T09:13:51.403Z,942
2018-04-10T09:14:51.397Z,941.98
2018-04-10T09:15:51.397Z,942.02
2018-04-10T09:16:51.394Z,942.02
2018-04-10T09:17:51.393Z,942.02
2018-04-10T09:18:51.392Z,942
2018-04-10T09:19:51.390Z,941.97
2018-04-10T09:20:51.389Z,941.97
2018-04-10T09:21:51.446Z,941.97
2018-04-10T09:22:51.388Z,941.94
2018-04-10T09:23:51.387Z,941.97
2018-04-10T09:24:51.385Z,941.98
2018-04-10T09:25:51.387Z,942.01
2018-04-10T09:26:51.383Z,941.97
2018-04-10T09:27:51.382Z,941.97
2018-04-10T09:28:51.381Z,941.99
2018-04-10T09:29:51.382Z,941.97
2018-04-10T09:30:51.379Z,941.97
2018-04-10T09:31:51.378Z,941.94
2018-04-10T09:32:51.380Z,941.97
2018-04-10T09:33:51.377Z,941.98
2018-04-10T09:34:51.374Z,942.01
2018-04-10T09:35:51.399Z,941.98
2018-04-10T09:36:51.374Z,941.99
2018-04-10T09:37:51.373Z,942.01
2018-04-10T09:38:51.370Z,941.99
2018-04-10T09:39:51.370Z,941.97
2018-04-10T09:40:51.370Z,941.97
2018-04-10T09:41:51.370Z,941.95
2018-04-10T09:42:51.369Z,942
2018-04-10T09:43:51.369Z,941.98
2018-04-10T09:44:51.367Z,941.91
2018-04-10T09:45:51.369Z,941.95
2018-04-10T09:46:51.367Z,941.95
2018-04-10T09:47:51.369Z,941.94
2018-04-10T09:48:51.366Z,941.93
2018-04-10T09:49:51.368Z,941.95
2018-04-10T09:50:51.363Z,941.94
2018-04-10T09:51:51.364Z,941.93
2018-04-10T09:52:51.362Z,941.95
2018-04-10T09:53:51.362Z,941.99
2018-04-10T09:54:51.362Z,941.98
2018-04-10T09:55:51.360Z,941.97
2018-04-10T09:56:51.359Z,941.92
2018-04-10T09:57:51.360Z,941.92
2018-04-10T09:58:51.359Z,941.94
2018-04-10T09:59:51.368Z,941.93
2018-04-10T10:00:51.357Z,941.86
2018-04-10T10:01:51.356Z,941.87
2018-04-10T10:02:51.356Z,941.88
2018-04-10T10:03:51.355Z,941.85
2018-04-10T10:04:51.355Z,941.81
2018-04-10T10:05:51.353Z,941.83
2018-04-10T10:06:51.355Z,941.8
2018-04-10T10:07:51.351Z,941.83
2018-04-10T10:08:51.351Z,941.83
2018-04-10T10:09:51.351Z,941.83
2018-04-10T10:10:51.351Z,941.82
2018-04-10T10:11:51.349Z,941.84
2018-04-10T10:12:51.363Z,941.86
2018-04-10T10:13:51.350Z,941.85
2018-04-10T10:14:51.380Z,941.9
2018-04-10T10:15:51.351Z,941.89
2018-04-10T10:16:51.349Z,941.91
2018-04-10T10:17:51.348Z,941.94
2018-04-10T10:18:51.347Z,941.88
2018-04-10T10:19:51.380Z,941.93
2018-04-10T10:20:51.346Z,941.94
2018-04-10T10:21:51.348Z,941.9
2018-04-10T10:22:51.345Z,941.91
2018-04-10T10:23:51.346Z,941.88
2018-04-10T10:24:51.346Z,941.85
2018-04-10T10:25:51.344Z,941.85
2018-04-10T10:26:51.344Z,941.84
2018-04-10T10:27:51.343Z,941.87
2018-04-10T10:28:51.344Z,941.85
2018-04-10T10:29:51.343Z,941.83
2018-04-10T10:30:51.345Z,941.83
2018-04-10T10:31:51.343Z,941.77
2018-04-10T10:32:51.343Z,941.75
2018-04-10T10:33:51.342Z,941.75
2018-04-10T10:34:51.342Z,941.75
2018-04-10T10:35:51.342Z,941.74
2018-04-10T10:36:51.342Z,941.73
2018-04-10T10:37:51.340Z,941.74
2018-04-10T10:38:51.340Z,941.8
2018-04-10T10:39:51.342Z,941.78
2018-04-10T10:40:51.339Z,941.8
2018-04-10T10:41:51.340Z,941.82
2018-04-10T10:42:51.340Z,941.82
2018-04-10T10:43:51.340Z,941.86
2018-04-10T10:44:51.340Z,941.81
2018-04-10T10:45:51.340Z,941.8
2018-04-10T10:46:51.339Z,941.75
2018-04-10T10:47:51.340Z,941.77
2018-04-10T10:48:51.344Z,941.78
2018-04-10T10:49:51.343Z,941.71
2018-04-10T10:50:51.340Z,941.79
2018-04-10T10:51:51.338Z,941.75
2018-04-10T10:52:51.337Z,941.73
2018-04-10T10:53:51.338Z,941.67
2018-04-10T10:54:51.370Z,941.67
2018-04-10T10:55:51.337Z,941.71
2018-04-10T10:56:51.338Z,941.72
2018-04-10T10:57:51.341Z,941.69
2018-04-10T10:58:51.337Z,941.71
2018-04-10T10:59:51.337Z,941.63
2018-04-10T11:00:51.337Z,941.61
2018-04-10T11:01:51.338Z,941.6
2018-04-10T11:02:51.336Z,941.62
2018-04-10T11:03:51.336Z,941.63
2018-04-10T11:04:51.337Z,941.62
2018-04-10T11:05:51.335Z,941.59
2018-04-10T11:06:51.338Z,941.54
2018-04-10T11:07:51.397Z,941.56
2018-04-10T11:08:51.333Z,941.57
2018-04-10T11:09:51.333Z,941.59
2018-04-10T11:10:51.334Z,941.58
2018-04-10T11:11:51.333Z,941.58
2018-04-10T11:12:51.335Z,941.63
2018-04-10T11:13:51.337Z,941.62
2018-04-10T11:14:51.331Z,941.63
2018-04-10T11:15:51.332Z,941.61
2018-04-10T11:16:51.331Z,941.62
2018-04-10T11:17:51.331Z,941.58
2018-04-10T11:18:51.331Z,941.61
2018-04-10T11:19:51.331Z,941.62
2018-04-10T11:20:51.329Z,941.65
2018-04-10T11:21:51.330Z,941.58
2018-04-10T11:22:51.329Z,941.55
2018-04-10T11:23:51.329Z,941.56
2018-04-10T11:24:51.329Z,941.57
2018-04-10T11:25:51.329Z,941.6
2018-04-10T11:26:51.328Z,941.59
2018-04-10T11:27:51.329Z,941.6
2018-04-10T11:28:51.329Z,941.58
2018-04-10T11:29:51.329Z,941.56
2018-04-10T11:30:51.329Z,941.55
2018-04-10T11:31:51.328Z,941.54
2018-04-10T11:32:51.329Z,941.5
2018-04-10T11:33:51.328Z,941.58
2018-04-10T11:34:51.329Z,941.54
2018-04-10T11:35:51.330Z,941.62
2018-04-10T11:36:51.328Z,941.57
2018-04-10T11:37:51.329Z,941.56
2018-04-10T11:38:51.328Z,941.64
2018-04-10T11:39:51.329Z,941.59
2018-04-10T11:40:51.329Z,941.6
2018-04-10T11:41:51.332Z,941.54
2018-04-10T11:42:51.332Z,941.53
2018-04-10T11:43:51.328Z,941.5
2018-04-10T11:44:51.329Z,941.56
2018-04-10T11:45:51.330Z,941.47
2018-04-10T11:46:51.329Z,941.52
2018-04-10T11:47:51.343Z,941.47
2018-04-10T11:48:51.329Z,941.48
2018-04-10T11:49:51.329Z,941.47
2018-04-10T11:50:51.330Z,941.45
2018-04-10T11:51:51.329Z,941.44
2018-04-10T11:52:51.329Z,941.44
2018-04-10T11:53:51.331Z,941.42
2018-04-10T11:54:51.332Z,941.4
2018-04-10T11:55:51.329Z,941.44
2018-04-10T11:56:51.329Z,941.43
2018-04-10T11:57:51.329Z,941.38
2018-04-10T11:58:51.328Z,941.43
2018-04-10T11:59:51.329Z,941.39
2018-04-10T12:00:51.326Z,941.38
2018-04-10T12:01:51.329Z,941.37
2018-04-10T12:02:51.329Z,941.37
2018-04-10T12:03:51.328Z,941.38
2018-04-10T12:04:51.326Z,941.41
2018-04-10T12:05:51.326Z,941.41
2018-04-10T12:06:51.326Z,941.4
2018-04-10T12:07:51.326Z,941.4
2018-04-10T12:08:51.325Z,941.36
2018-04-10T12:09:51.325Z,941.39
2018-04-10T12:10:51.325Z,941.37
2018-04-10T12:11:51.324Z,941.36
2018-04-10T12:12:51.322Z,941.37
2018-04-10T12:13:51.327Z,941.33
2018-04-10T12:14:51.325Z,941.37
2018-04-10T12:15:51.321Z,941.37
2018-04-10T12:16:51.321Z,941.39
2018-04-10T12:17:51.321Z,941.36
2018-04-10T12:18:51.330Z,941.37
2018-04-10T12:19:51.321Z,941.33
2018-04-10T12:20:51.322Z,941.35
2018-04-10T12:21:51.321Z,941.37
2018-04-10T12:22:51.320Z,941.39
2018-04-10T12:23:51.325Z,941.33
2018-04-10T12:24:51.320Z,941.33
2018-04-10T12:25:51.320Z,941.35
2018-04-10T12:26:51.318Z,941.34
2018-04-10T12:27:51.319Z,941.37
2018-04-10T12:28:51.319Z,941.39
2018-04-10T12:29:51.317Z,941.44
2018-04-10T12:30:51.317Z,941.4
2018-04-10T12:31:51.317Z,941.37